Time;durP1;ratioP1;P1;durP2;ratioP2;P2;SDS_P1;SDS_P2;PMS_P1;PMS_P2;Temp;Humidity;BMP_temperature;BMP_pressure;BME280_temperature;BME280_humidity;BME280_pressure;Samples;Min_cycle;Max_cycle;Signal;HPM_P1;HPM_P2
2023/07/19 00:03:09;;;;;;;39.08;13.65;;;;;;;17.96;69.53;100527.22;4989024;58;1142872;-68
2023/07/19 00:08:15;;;;;;;29.45;9.33;;;;;;;17.93;70.10;100523.53;4969326;57;1142976;-67
2023/07/19 00:13:20;;;;;;;22.67;8.93;;;;;;;17.98;70.54;100519.02;4970461;57;1140697;-69
2023/07/19 00:18:26;;;;;;;29.55;9.63;;;;;;;17.98;70.67;100515.01;4969669;57;1141147;-71
2023/07/19 00:23:32;;;;;;;26.17;10.63;;;;;;;17.96;70.78;100508.48;5044581;56;1140804;-69
2023/07/19 00:28:37;;;;;;;35.10;12.25;;;;;;;17.95;71.25;100504.13;5017682;57;1143544;-72
2023/07/19 00:33:43;;;;;;;28.40;9.05;;;;;;;17.92;71.22;100501.78;5024747;57;1143067;-70
2023/07/19 00:38:50;;;;;;;9.70;3.80;;;;;;;17.89;71.32;100499.44;5073844;57;1140848;-69
2023/07/19 00:43:56;;;;;;;3.80;2.40;;;;;;;17.81;71.28;100486.91;5054543;57;1138596;-70
2023/07/19 00:49:02;;;;;;;4.58;2.72;;;;;;;17.73;71.56;100489.56;5054037;57;1138710;-70
2023/07/19 00:54:10;;;;;;;10.07;4.10;;;;;;;17.67;71.98;100488.06;5073849;57;1138968;-71
2023/07/19 00:59:16;;;;;;;8.75;4.62;;;;;;;17.57;72.36;100476.97;5053986;57;1140733;-70
2023/07/19 01:04:32;;;;;;;19.20;7.83;;;;;;;17.54;72.69;100475.15;5055156;56;1139083;-69
2023/07/19 01:09:32;;;;;;;25.97;7.40;;;;;;;17.50;72.86;100470.63;5052845;57;1141003;-69
2023/07/19 01:14:39;;;;;;;32.77;11.23;;;;;;;17.40;72.66;100465.10;5074214;57;1140725;-73
2023/07/19 01:19:46;;;;;;;45.58;15.03;;;;;;;17.30;72.70;100452.36;5010861;57;1143005;-67
2023/07/19 01:24:51;;;;;;;30.10;10.60;;;;;;;17.20;72.69;100453.86;5048471;56;1142902;-67
2023/07/19 01:29:57;;;;;;;33.97;11.07;;;;;;;17.10;72.83;100450.00;5072705;57;1143367;-71
2023/07/19 01:35:02;;;;;;;34.93;10.90;;;;;;;17.05;73.19;100447.47;4977579;57;1143263;-68
2023/07/19 01:40:11;;;;;;;40.23;13.00;;;;;;;16.95;73.60;100444.10;5013654;56;1143010;-69
2023/07/19 01:45:17;;;;;;;65.63;23.50;;;;;;;16.90;73.94;100437.90;5046367;57;1143026;-72
2023/07/19 01:50:23;;;;;;;66.10;20.76;;;;;;;16.77;74.22;100429.50;4987401;57;1143058;-70
2023/07/19 01:55:28;;;;;;;47.83;17.10;;;;;;;16.67;74.30;100429.61;5045005;57;1143022;-70
2023/07/19 02:00:34;;;;;;;51.10;16.27;;;;;;;16.60;74.56;100429.06;4910423;59;1142953;-68
2023/07/19 02:05:39;;;;;;;48.90;16.02;;;;;;;16.57;75.22;100430.21;5034805;56;1142959;-71
2023/07/19 02:10:45;;;;;;;50.70;15.17;;;;;;;16.57;75.62;100426.20;5129013;56;1142813;-67
2023/07/19 02:15:51;;;;;;;35.58;11.22;;;;;;;16.55;75.68;100422.86;4914024;58;1142997;-70
2023/07/19 02:20:56;;;;;;;27.27;8.70;;;;;;;16.47;75.51;100428.17;5019311;57;1142806;-71
2023/07/19 02:26:02;;;;;;;11.53;5.20;;;;;;;16.40;76.07;100433.30;5001025;56;1140853;-69
2023/07/19 02:31:08;;;;;;;17.80;5.07;;;;;;;16.37;76.46;100424.27;5063521;57;1140870;-70
2023/07/19 02:36:14;;;;;;;15.93;5.73;;;;;;;16.28;75.95;100411.88;4969773;58;1140731;-72
2023/07/19 02:41:19;;;;;;;15.50;5.40;;;;;;;16.14;76.69;100421.31;4889703;58;1140747;-69
2023/07/19 02:46:25;;;;;;;9.38;4.64;;;;;;;16.11;77.30;100418.11;4990517;57;1141244;-70
2023/07/19 02:51:32;;;;;;;15.87;3.33;;;;;;;16.06;77.57;100419.91;4990064;58;1138708;-70
2023/07/19 02:56:37;;;;;;;6.37;2.53;;;;;;;15.90;77.77;100409.12;4970330;57;1140792;-71
2023/07/19 03:01:43;;;;;;;7.73;2.87;;;;;;;15.88;78.08;100404.47;4970897;58;1138785;-69
2023/07/19 03:06:49;;;;;;;12.30;4.53;;;;;;;15.77;77.94;100394.03;4990074;58;1138879;-69
2023/07/19 03:11:55;;;;;;;23.03;5.63;;;;;;;15.76;78.89;100401.69;4970281;58;1141051;-69
2023/07/19 03:17:01;;;;;;;18.00;4.00;;;;;;;15.70;78.62;100392.98;5029191;57;1140944;-69
2023/07/19 03:22:07;;;;;;;7.50;3.23;;;;;;;15.66;79.91;100392.45;5040130;57;1141064;-69
2023/07/19 03:27:12;;;;;;;9.13;2.90;;;;;;;15.62;80.08;100379.58;5006865;57;1138868;-72
2023/07/19 03:32:18;;;;;;;8.07;3.20;;;;;;;15.62;80.38;100391.58;5022513;57;1138906;-68
2023/07/19 03:37:24;;;;;;;11.57;5.73;;;;;;;15.67;80.44;100399.46;5033123;57;1138688;-70
2023/07/19 03:42:29;;;;;;;26.47;8.37;;;;;;;15.68;80.40;100405.14;5072057;57;1140819;-68
2023/07/19 03:47:37;;;;;;;26.30;9.08;;;;;;;15.73;80.66;100397.52;5066588;56;1144437;-70
2023/07/19 03:52:43;;;;;;;28.53;8.37;;;;;;;15.66;80.78;100392.95;5037530;56;1140893;-70
2023/07/19 03:57:49;;;;;;;15.28;6.00;;;;;;;15.53;80.91;100393.81;5072146;57;1140776;-71
2023/07/19 04:02:55;;;;;;;10.90;4.67;;;;;;;15.44;81.77;100392.89;5051470;57;1140843;-68
2023/07/19 04:08:01;;;;;;;18.37;4.97;;;;;;;15.41;82.28;100395.39;5052272;56;1140820;-70
2023/07/19 04:13:10;;;;;;;7.80;4.43;;;;;;;15.48;82.81;100393.77;5071804;57;1140934;-70
2023/07/19 04:18:16;;;;;;;17.03;12.00;;;;;;;15.62;83.11;100386.24;5052509;57;1139091;-71
2023/07/19 04:23:22;;;;;;;13.80;9.50;;;;;;;15.72;83.25;100380.34;4994938;56;1142875;-69
2023/07/19 04:28:28;;;;;;;9.27;5.33;;;;;;;15.82;82.97;100383.73;5023319;56;1140989;-70
2023/07/19 04:33:34;;;;;;;6.87;4.43;;;;;;;15.91;83.21;100373.45;5051848;56;1138758;-68
2023/07/19 04:38:40;;;;;;;5.43;3.80;;;;;;;16.03;82.55;100354.05;5008780;56;1139156;-67
2023/07/19 04:43:46;;;;;;;7.30;2.93;;;;;;;16.18;82.67;100358.63;5028310;56;1138705;-71
2023/07/19 04:48:52;;;;;;;6.08;2.65;;;;;;;16.33;82.98;100355.36;5091191;56;1138734;-71
2023/07/19 04:53:58;;;;;;;8.70;2.83;;;;;;;16.30;82.30;100354.34;4960126;58;1138887;-69
2023/07/19 04:59:05;;;;;;;5.00;2.77;;;;;;;16.28;82.88;100358.50;4972862;57;1138796;-70
2023/07/19 05:04:10;;;;;;;7.40;2.53;;;;;;;16.28;83.86;100350.50;5066357;56;1138634;-70
2023/07/19 05:09:17;;;;;;;3.83;2.60;;;;;;;16.35;84.48;100344.00;5046010;57;1138631;-70
2023/07/19 05:14:23;;;;;;;10.23;2.60;;;;;;;16.42;85.91;100350.39;5032272;56;1138828;-70
2023/07/19 05:19:29;;;;;;;11.37;2.30;;;;;;;16.52;86.38;100346.58;5031257;57;1141143;-69
2023/07/19 05:24:35;;;;;;;5.87;2.77;;;;;;;16.72;87.13;100343.18;4990085;56;1140791;-70
2023/07/19 05:29:40;;;;;;;7.20;2.57;;;;;;;16.91;87.38;100347.91;5011012;57;1139098;-69
2023/07/19 05:34:46;;;;;;;6.03;2.55;;;;;;;17.15;87.25;100347.93;5042035;57;1138687;-69
2023/07/19 05:39:52;;;;;;;9.23;2.10;;;;;;;17.39;86.56;100338.61;5068157;57;1138893;-72
2023/07/19 05:44:57;;;;;;;2.45;2.20;;;;;;;17.67;84.96;100340.45;5052847;57;1138618;-67
2023/07/19 05:50:03;;;;;;;7.07;2.30;;;;;;;17.86;83.45;100332.07;5052859;57;1138371;-69
2023/07/19 05:55:09;;;;;;;7.67;2.20;;;;;;;18.06;82.22;100331.16;5046149;57;1138590;-70
2023/07/19 06:00:28;;;;;;;11.53;2.10;;;;;;;18.31;81.45;100332.44;5038057;56;1138941;-70
2023/07/19 06:05:34;;;;;;;4.28;2.80;;;;;;;18.55;80.91;100326.45;5040898;57;1141025;-67
2023/07/19 06:10:40;;;;;;;7.32;3.36;;;;;;;18.79;79.68;100336.76;5050874;56;1138808;-72
2023/07/19 06:15:46;;;;;;;6.78;2.00;;;;;;;18.94;79.02;100334.45;5039133;57;1138867;-72
2023/07/19 06:20:52;;;;;;;8.63;1.98;;;;;;;19.11;77.35;100340.54;5036313;57;1138802;-68
2023/07/19 06:25:57;;;;;;;3.05;1.90;;;;;;;19.34;75.92;100333.84;4970946;56;1138727;-69
2023/07/19 06:31:03;;;;;;;3.40;1.56;;;;;;;19.62;72.87;100338.16;5044270;57;1138800;-72
2023/07/19 06:36:09;;;;;;;6.05;2.30;;;;;;;19.89;69.73;100336.71;5012740;57;1138838;-70
2023/07/19 06:41:14;;;;;;;4.53;1.55;;;;;;;20.12;69.79;100321.38;5052270;56;1138713;-70
2023/07/19 06:46:20;;;;;;;6.22;1.80;;;;;;;20.40;68.33;100320.22;5061719;56;1138787;-70
2023/07/19 06:51:26;;;;;;;2.15;1.50;;;;;;;20.61;66.57;100322.97;5030190;57;1138729;-72
2023/07/19 06:56:31;;;;;;;1.75;1.65;;;;;;;20.75;63.84;100333.88;5035780;57;1138865;-68
2023/07/19 07:01:37;;;;;;;3.20;1.75;;;;;;;20.81;64.18;100324.52;5061106;57;1138891;-68
2023/07/19 07:06:42;;;;;;;3.35;1.67;;;;;;;20.93;63.46;100317.61;5051972;57;1138645;-72
2023/07/19 07:11:48;;;;;;;2.83;1.60;;;;;;;21.14;63.43;100313.27;5051993;57;1138824;-73
2023/07/19 07:16:53;;;;;;;6.15;1.30;;;;;;;21.29;60.86;100313.56;5072372;57;1138893;-74
2023/07/19 07:21:59;;;;;;;5.12;1.55;;;;;;;21.41;60.06;100307.97;5023385;57;1138622;-74
2023/07/19 07:27:05;;;;;;;2.92;1.62;;;;;;;21.59;57.29;100302.11;4978666;57;1138992;-70
2023/07/19 07:32:11;;;;;;;2.92;1.62;;;;;;;21.76;53.61;100301.30;4986045;58;1138889;-70
2023/07/19 07:37:18;;;;;;;5.17;2.60;;;;;;;21.79;53.67;100295.53;5049940;57;1138514;-73
2023/07/19 07:42:24;;;;;;;1.57;1.47;;;;;;;21.86;53.40;100281.58;5048233;57;1139012;-71
2023/07/19 07:47:30;;;;;;;5.63;2.10;;;;;;;22.03;54.39;100276.22;5041530;57;1138902;-68
2023/07/19 07:52:36;;;;;;;5.92;2.12;;;;;;;22.25;53.39;100277.47;5061066;57;1138780;-71
2023/07/19 07:57:41;;;;;;;5.97;1.90;;;;;;;22.44;51.90;100274.87;5032330;56;1138876;-71
2023/07/19 08:02:47;;;;;;;8.63;2.65;;;;;;;22.60;52.53;100266.11;5037222;56;1138921;-69
2023/07/19 08:07:52;;;;;;;3.55;1.60;;;;;;;22.73;50.13;100266.13;5048363;57;1139068;-69
2023/07/19 08:12:58;;;;;;;2.25;1.60;;;;;;;22.88;48.29;100260.59;5038010;57;1138848;-70
2023/07/19 08:18:04;;;;;;;3.33;1.67;;;;;;;23.10;48.94;100258.01;5037126;56;1138677;-69
2023/07/19 08:23:09;;;;;;;3.27;1.30;;;;;;;23.32;48.54;100254.08;5048056;57;1138891;-70
2023/07/19 08:28:15;;;;;;;2.15;1.40;;;;;;;23.44;42.98;100256.45;4983327;56;1138662;-66
2023/07/19 08:33:23;;;;;;;1.67;1.42;;;;;;;23.60;45.92;100240.37;5050609;57;1138872;-69
2023/07/19 08:38:29;;;;;;;1.33;1.23;;;;;;;23.85;45.79;100248.61;5041130;57;1138722;-67
2023/07/19 08:43:36;;;;;;;8.13;1.75;;;;;;;24.08;46.28;100244.09;5063637;57;1138693;-73
2023/07/19 08:48:47;;;;;;;2.40;1.60;;;;;;;24.28;46.05;100246.23;5051939;57;1138625;-73
2023/07/19 08:53:53;;;;;;;8.25;2.87;;;;;;;24.27;44.43;100221.59;5008065;57;1138706;-68
2023/07/19 08:58:59;;;;;;;2.87;1.37;;;;;;;24.32;41.27;100221.76;4991656;57;1138740;-69
2023/07/19 09:04:11;;;;;;;5.50;2.27;;;;;;;24.39;41.62;100221.73;5037222;57;1139063;-73
2023/07/19 09:09:18;;;;;;;7.78;2.40;;;;;;;24.31;40.73;100221.97;5053513;57;1138808;-72
2023/07/19 09:14:37;;;;;;;3.45;1.98;;;;;;;24.19;41.67;100224.50;4993685;57;1138983;-67
2023/07/19 09:19:47;;;;;;;3.62;1.65;;;;;;;24.33;42.04;100209.91;5053121;56;1138736;-69
2023/07/19 09:25:03;;;;;;;7.97;1.98;;;;;;;24.50;40.89;100209.70;5038061;57;1139008;-72
2023/07/19 09:30:14;;;;;;;1.75;1.40;;;;;;;24.70;40.91;100200.64;5013215;56;1138640;-70
2023/07/19 09:35:26;;;;;;;2.03;1.30;;;;;;;25.00;40.98;100196.81;5070676;56;1138725;-72
2023/07/19 09:40:31;;;;;;;;;;;;;;;25.05;38.24;100195.11;5038923;56;1138854;-72
2023/07/19 09:45:40;;;;;;;1.87;1.77;;;;;;;24.90;38.17;100189.96;5032772;56;976233;-72
2023/07/19 09:50:46;;;;;;;6.62;1.57;;;;;;;24.83;38.88;100186.50;5053562;57;1136599;-71
2023/07/19 09:55:54;;;;;;;2.60;1.70;;;;;;;24.62;40.27;100183.31;5016917;56;1139149;-69
2023/07/19 10:01:00;;;;;;;2.20;1.73;;;;;;;24.51;40.13;100187.55;5024467;57;1138899;-69
2023/07/19 10:06:06;;;;;;;1.52;1.30;;;;;;;24.58;39.11;100188.88;5059115;56;1138811;-71
2023/07/19 10:11:24;;;;;;;1.75;1.65;;;;;;;24.68;38.35;100179.75;5029882;57;1138872;-69
2023/07/19 10:16:37;;;;;;;3.77;1.98;;;;;;;24.66;38.96;100171.02;5046031;57;1138759;-69
2023/07/19 10:22:07;;;;;;;1.46;1.36;;;;;;;24.85;38.91;100160.06;5023028;56;1138821;-72
2023/07/19 10:27:18;;;;;;;3.22;2.33;;;;;;;25.15;37.40;100163.47;5018890;57;1138825;-68
2023/07/19 10:32:23;;;;;;;1.65;1.50;;;;;;;25.32;38.62;100156.96;4999343;56;1138823;-71
2023/07/19 10:37:29;;;;;;;3.12;1.60;;;;;;;25.52;36.43;100153.49;5050478;56;1138994;-69
2023/07/19 10:42:34;;;;;;;3.17;2.17;;;;;;;25.65;37.79;100149.34;5071696;57;1138804;-68
2023/07/19 10:47:40;;;;;;;3.08;1.47;;;;;;;25.84;36.77;100134.70;5021212;56;1138774;-72
2023/07/19 10:52:49;;;;;;;1.95;1.72;;;;;;;26.01;34.67;100135.42;5038064;56;1138556;-70
2023/07/19 10:57:54;;;;;;;1.80;1.27;;;;;;;25.81;34.78;100142.48;5040402;56;1139059;-70
2023/07/19 11:03:00;;;;;;;1.55;1.42;;;;;;;25.79;34.56;100126.45;5023114;56;1138737;-72
2023/07/19 11:08:06;;;;;;;1.70;1.60;;;;;;;25.65;35.16;100128.20;5023144;56;1138694;-72
2023/07/19 11:13:13;;;;;;;4.37;1.62;;;;;;;25.43;37.19;100128.61;5001839;57;1138851;-68
2023/07/19 11:18:38;;;;;;;2.87;1.40;;;;;;;25.29;37.24;100127.63;4964007;57;1138572;-69
2023/07/19 11:23:45;;;;;;;4.67;2.00;;;;;;;25.31;37.99;100121.46;4998231;56;1138828;-68
2023/07/19 11:28:57;;;;;;;1.57;1.47;;;;;;;25.41;38.31;100119.88;4970416;56;1139063;-71
2023/07/19 11:34:11;;;;;;;3.70;1.45;;;;;;;25.43;36.87;100119.66;5081312;56;1138808;-71
2023/07/19 11:39:25;;;;;;;1.95;1.12;;;;;;;25.69;37.50;100119.37;5041568;57;1138707;-71
2023/07/19 11:44:30;;;;;;;3.58;1.30;;;;;;;26.05;36.20;100117.13;5041167;57;1138832;-68
2023/07/19 11:49:36;;;;;;;2.33;1.50;;;;;;;26.30;35.81;100115.65;5044549;56;1138960;-68
2023/07/19 11:54:41;;;;;;;6.30;1.47;;;;;;;26.29;34.29;100118.06;5083886;56;1139238;-71
2023/07/19 11:59:48;;;;;;;7.22;1.20;;;;;;;25.98;35.14;100113.67;5071355;56;1139278;-73
2023/07/19 12:04:54;;;;;;;2.17;1.30;;;;;;;25.54;36.02;100102.12;5002944;56;1138742;-69
2023/07/19 12:10:02;;;;;;;1.67;1.55;;;;;;;25.26;36.46;100100.99;5085809;56;1139045;-71
2023/07/19 12:15:11;;;;;;;2.37;1.67;;;;;;;25.17;37.79;100104.53;5065352;56;1138631;-73
2023/07/19 12:20:17;;;;;;;1.10;1.10;;;;;;;25.21;37.88;100102.48;5050594;56;1138555;-70
2023/07/19 12:25:23;;;;;;;3.04;1.44;;;;;;;25.41;38.46;100086.03;5067965;56;1138866;-71
2023/07/19 12:30:28;;;;;;;2.08;1.35;;;;;;;25.89;37.36;100085.25;5058571;56;1139005;-72
2023/07/19 12:35:36;;;;;;;4.87;1.50;;;;;;;26.06;36.19;100080.02;5038687;56;1138875;-70
2023/07/19 12:40:43;;;;;;;2.08;1.50;;;;;;;26.38;37.73;100076.55;5041068;57;1138637;-70
2023/07/19 12:45:48;;;;;;;2.92;1.65;;;;;;;26.59;37.10;100079.50;5154180;56;1138755;-72
2023/07/19 12:50:54;;;;;;;4.65;1.80;;;;;;;26.78;38.81;100077.52;4993417;56;1138595;-72
2023/07/19 12:55:59;;;;;;;6.03;2.00;;;;;;;26.69;37.72;100080.30;5040805;57;1139152;-68
2023/07/19 13:01:05;;;;;;;7.75;3.00;;;;;;;26.49;38.71;100084.69;5058741;57;1138648;-70
2023/07/19 13:06:11;;;;;;;9.10;2.70;;;;;;;26.71;38.56;100076.83;5016960;56;1138719;-71
2023/07/19 13:11:17;;;;;;;2.15;1.50;;;;;;;26.81;38.93;100059.42;5013698;57;1138834;-69
2023/07/19 13:16:23;;;;;;;1.65;1.25;;;;;;;26.87;38.48;100055.77;5033930;57;1138780;-70
2023/07/19 13:21:29;;;;;;;7.83;1.75;;;;;;;26.75;37.54;100063.59;5040901;57;1138891;-71
2023/07/19 13:26:35;;;;;;;2.40;1.50;;;;;;;26.46;38.77;100063.98;4977104;56;1138684;-74
2023/07/19 13:31:41;;;;;;;4.47;1.37;;;;;;;26.24;37.64;100056.39;5041947;57;1139026;-69
2023/07/19 13:36:47;;;;;;;3.98;1.30;;;;;;;26.08;37.17;100047.56;5055852;56;1138766;-70
2023/07/19 13:41:52;;;;;;;3.55;1.65;;;;;;;26.12;37.67;100044.70;5038466;56;1138722;-72
2023/07/19 13:46:58;;;;;;;6.05;1.60;;;;;;;26.18;37.86;100038.33;5041846;57;1138883;-71
2023/07/19 13:52:04;;;;;;;2.12;1.50;;;;;;;26.21;37.62;100028.38;5042849;57;1139012;-67
2023/07/19 13:57:09;;;;;;;2.75;1.22;;;;;;;26.12;37.49;100031.14;5050852;56;1139208;-69
2023/07/19 14:02:15;;;;;;;2.02;1.67;;;;;;;26.03;38.23;100028.45;5064235;56;1138999;-73
2023/07/19 14:07:21;;;;;;;1.32;1.15;;;;;;;25.98;37.84;100019.35;5065648;56;1138784;-72
2023/07/19 14:12:26;;;;;;;9.33;1.32;;;;;;;25.97;39.17;100013.13;5014445;56;1138732;-67
2023/07/19 14:17:34;;;;;;;3.77;1.63;;;;;;;25.90;38.94;100017.28;4986238;57;1139216;-71
2023/07/19 14:22:40;;;;;;;2.75;1.25;;;;;;;25.80;38.77;100012.97;5011584;57;1138971;-73
2023/07/19 14:27:47;;;;;;;6.42;1.90;;;;;;;25.68;38.64;100010.72;5052122;57;1139014;-71
2023/07/19 14:32:52;;;;;;;10.38;1.78;;;;;;;25.55;39.15;100018.47;5052245;56;1146478;-71
2023/07/19 14:37:58;;;;;;;2.08;1.42;;;;;;;25.46;39.99;100006.84;5072298;57;1140798;-72
2023/07/19 14:43:04;;;;;;;15.65;13.22;;;;;;;25.36;40.39;100010.63;5051694;57;1138740;-70
2023/07/19 14:48:09;;;;;;;6.70;3.42;;;;;;;25.35;41.13;100011.68;5051381;57;1142705;-72
2023/07/19 14:53:15;;;;;;;5.30;1.47;;;;;;;25.40;41.73;100009.09;5033755;56;1138762;-72
2023/07/19 14:58:21;;;;;;;2.75;1.50;;;;;;;25.32;41.81;100009.42;4971944;57;1138837;-73
2023/07/19 15:03:27;;;;;;;4.25;1.60;;;;;;;25.20;41.88;100003.42;4972700;57;1139003;-72
2023/07/19 15:08:33;;;;;;;3.70;1.27;;;;;;;25.23;42.33;100006.17;4979579;56;1138829;-71
2023/07/19 15:13:39;;;;;;;40.52;3.60;;;;;;;25.22;41.88;100013.47;4999052;57;1138781;-69
2023/07/19 15:18:45;;;;;;;7.92;2.20;;;;;;;25.16;42.49;100000.86;4979383;57;1140806;-68
2023/07/19 15:23:51;;;;;;;8.15;2.00;;;;;;;25.20;42.63;100005.30;5048333;56;1139054;-72
2023/07/19 15:28:57;;;;;;;16.70;2.83;;;;;;;25.28;42.93;100002.80;5044854;56;1138806;-70
2023/07/19 15:34:03;;;;;;;8.30;2.27;;;;;;;25.33;43.45;100007.84;5054251;56;1141070;-74
2023/07/19 15:39:08;;;;;;;9.50;2.08;;;;;;;25.29;43.78;100007.16;5044917;56;1138733;-69
2023/07/19 15:44:14;;;;;;;3.58;1.82;;;;;;;25.11;44.45;100010.70;5067246;56;1138639;-70
2023/07/19 15:49:23;;;;;;;6.75;1.85;;;;;;;24.84;45.44;100019.61;5022248;56;1138892;-70
2023/07/19 15:54:29;;;;;;;9.68;1.62;;;;;;;24.68;46.27;100018.31;5031936;56;1138621;-73
2023/07/19 15:59:35;;;;;;;6.27;1.90;;;;;;;24.57;47.20;100029.04;5015334;56;1138956;-68
2023/07/19 16:04:40;;;;;;;2.35;1.87;;;;;;;24.43;47.62;100045.38;5003927;56;1138975;-71
2023/07/19 16:09:46;;;;;;;4.05;2.45;;;;;;;24.33;48.46;100043.67;5026240;57;1138920;-69
2023/07/19 16:14:51;;;;;;;13.88;2.62;;;;;;;24.30;49.69;100043.27;5052325;56;1138570;-72
2023/07/19 16:19:57;;;;;;;9.73;2.00;;;;;;;24.19;50.81;100043.44;5033025;56;1141020;-73
2023/07/19 16:25:03;;;;;;;6.40;1.80;;;;;;;24.15;51.00;100039.51;4970516;57;1138698;-70
2023/07/19 16:30:09;;;;;;;14.40;1.92;;;;;;;24.11;50.75;100041.02;5038406;57;1138697;-69
2023/07/19 16:35:15;;;;;;;3.25;1.92;;;;;;;24.12;50.98;100038.62;5072301;57;1141128;-74
2023/07/19 16:40:20;;;;;;;7.25;2.62;;;;;;;24.02;50.77;100033.68;5052950;56;1139178;-71
2023/07/19 16:45:26;;;;;;;3.25;2.37;;;;;;;23.99;51.64;100022.48;5062305;56;1138660;-71
2023/07/19 16:50:32;;;;;;;3.03;2.27;;;;;;;23.89;52.04;100025.67;5015450;56;1138876;-70
2023/07/19 16:55:37;;;;;;;2.62;1.90;;;;;;;23.82;52.42;100018.14;5036517;56;1138576;-73
2023/07/19 17:00:45;;;;;;;1.98;1.67;;;;;;;23.76;52.74;100010.91;5058470;56;1138547;-69
2023/07/19 17:05:50;;;;;;;3.60;1.95;;;;;;;23.71;53.48;100012.89;4989721;56;1138687;-70
2023/07/19 17:10:56;;;;;;;6.40;2.95;;;;;;;23.59;53.92;100015.14;5071502;56;1138874;-73
2023/07/19 17:16:02;;;;;;;7.87;2.87;;;;;;;23.53;54.82;100018.17;5133610;56;1138750;-70
2023/07/19 17:21:08;;;;;;;3.00;2.20;;;;;;;23.46;55.21;100016.84;5126873;56;1138621;-71
2023/07/19 17:26:14;;;;;;;5.95;1.75;;;;;;;23.40;55.93;100016.34;5066904;56;1138688;-68
2023/07/19 17:31:19;;;;;;;3.98;2.10;;;;;;;23.35;56.31;100019.39;5041573;57;1138879;-72
2023/07/19 17:36:25;;;;;;;8.78;3.22;;;;;;;23.30;56.98;100017.33;5041826;57;1139066;-70
2023/07/19 17:41:31;;;;;;;5.17;2.40;;;;;;;23.22;57.66;100020.25;5012759;57;1139009;-70
2023/07/19 17:46:39;;;;;;;5.60;2.15;;;;;;;23.20;57.83;100021.53;4979396;56;1138815;-70
2023/07/19 17:51:44;;;;;;;9.75;3.17;;;;;;;23.19;57.94;100022.05;4960401;56;1138775;-72
2023/07/19 17:56:51;;;;;;;11.93;3.45;;;;;;;23.12;58.49;100026.63;4979774;56;1138729;-72
2023/07/19 18:01:57;;;;;;;11.85;5.20;;;;;;;23.01;58.67;100021.89;5025802;56;1140987;-69
2023/07/19 18:07:04;;;;;;;4.72;3.30;;;;;;;22.92;59.30;100025.32;5082939;56;1140754;-73
2023/07/19 18:12:11;;;;;;;7.72;4.90;;;;;;;22.84;59.32;100032.30;5041059;57;1138698;-69
2023/07/19 18:17:17;;;;;;;18.07;4.47;;;;;;;22.78;59.85;100037.17;5060868;57;1138771;-68
2023/07/19 18:22:22;;;;;;;8.90;4.28;;;;;;;22.74;60.06;100036.76;5026166;57;1140872;-71
2023/07/19 18:27:28;;;;;;;6.60;2.50;;;;;;;22.66;60.21;100033.44;5021919;57;1138781;-69
2023/07/19 18:32:34;;;;;;;5.17;3.17;;;;;;;22.61;60.48;100025.96;5038948;57;1139115;-69
2023/07/19 18:37:39;;;;;;;11.80;2.87;;;;;;;22.57;60.76;100022.05;5037338;56;1138842;-70
2023/07/19 18:42:45;;;;;;;15.28;3.58;;;;;;;22.53;60.81;100030.75;4970392;57;1140888;-72
2023/07/19 18:47:50;;;;;;;9.20;2.98;;;;;;;22.44;61.05;100043.11;5011262;57;1140760;-70
2023/07/19 18:52:56;;;;;;;4.38;3.00;;;;;;;22.42;61.69;100033.56;5042123;57;1139075;-71
2023/07/19 18:58:02;;;;;;;17.00;3.90;;;;;;;22.41;61.78;100039.98;5021432;57;1139031;-73
2023/07/19 19:03:07;;;;;;;7.65;2.70;;;;;;;22.32;61.71;100036.66;5036255;57;1140967;-70
2023/07/19 19:08:15;;;;;;;10.20;2.65;;;;;;;22.25;61.79;100035.01;5045837;57;1138717;-70
2023/07/19 19:13:21;;;;;;;8.30;2.10;;;;;;;22.15;62.25;100038.13;5026221;57;1141081;-69
2023/07/19 19:18:27;;;;;;;37.60;6.50;;;;;;;22.12;62.63;100039.04;5032728;57;1138688;-69
2023/07/19 19:23:33;;;;;;;31.23;3.72;;;;;;;22.13;64.75;100029.93;5028676;57;1141026;-69
2023/07/19 19:28:39;;;;;;;12.10;4.40;;;;;;;22.06;64.30;100038.82;5060695;57;1140988;-69
2023/07/19 19:33:43;;;;;;;16.37;7.47;;;;;;;;;;5040693;57;1141079;-71
2023/07/19 19:38:49;;;;;;;3.95;3.40;;;;;;;21.92;65.82;100043.01;5078793;57;819930;-70
2023/07/19 19:43:54;;;;;;;56.45;26.00;;;;;;;21.82;65.43;100047.97;5055520;56;1136412;-70
2023/07/19 19:49:01;;;;;;;12.37;6.17;;;;;;;21.84;66.00;100045.91;5041304;57;1142770;-74
2023/07/19 19:54:09;;;;;;;16.73;7.70;;;;;;;21.87;66.53;100054.37;5039163;56;1140755;-71
2023/07/19 19:59:14;;;;;;;26.52;8.53;;;;;;;21.88;66.67;100052.52;5042976;56;1140833;-70
2023/07/19 20:04:20;;;;;;;21.27;10.30;;;;;;;21.86;66.57;100066.18;5037611;56;1140854;-68
2023/07/19 20:09:25;;;;;;;17.75;9.73;;;;;;;21.87;66.80;100062.97;4998995;57;1143006;-69
2023/07/19 20:14:31;;;;;;;14.50;8.93;;;;;;;21.81;67.12;100060.59;5023403;57;1140932;-69
2023/07/19 20:19:36;;;;;;;17.02;7.22;;;;;;;21.81;67.33;100057.08;5061085;57;1140822;-66
2023/07/19 20:24:42;;;;;;;17.27;6.40;;;;;;;21.78;67.81;100048.88;4968069;57;1141001;-70
2023/07/19 20:29:48;;;;;;;10.70;4.92;;;;;;;21.67;67.33;100041.41;5006919;56;1141395;-70
2023/07/19 20:34:54;;;;;;;9.85;3.42;;;;;;;21.54;67.57;100048.89;5161945;56;1141307;-69
2023/07/19 20:40:01;;;;;;;27.90;7.90;;;;;;;21.45;67.83;100047.42;5140146;56;1138723;-69
2023/07/19 20:45:08;;;;;;;40.03;10.53;;;;;;;21.28;68.17;100046.93;5139684;56;1140707;-68
2023/07/19 20:50:14;;;;;;;53.00;17.05;;;;;;;21.15;68.32;100046.83;5094515;56;1142977;-70
2023/07/19 20:55:20;;;;;;;19.07;7.17;;;;;;;21.08;68.77;100045.16;5006252;56;1142875;-68
2023/07/19 21:00:25;;;;;;;19.55;6.95;;;;;;;21.05;69.16;100055.28;5018752;56;1140876;-71
2023/07/19 21:05:32;;;;;;;14.38;6.22;;;;;;;21.08;69.31;100055.91;5077480;56;1141065;-69
2023/07/19 21:10:38;;;;;;;8.70;5.03;;;;;;;21.04;69.63;100048.75;4986925;58;1141015;-69
2023/07/19 21:15:43;;;;;;;22.05;6.12;;;;;;;20.97;69.99;100046.52;5013604;57;1138731;-69
2023/07/19 21:20:49;;;;;;;13.50;6.70;;;;;;;20.60;69.41;100050.42;5043116;57;1140735;-68
2023/07/19 21:25:55;;;;;;;23.15;8.60;;;;;;;20.35;70.40;100051.30;5015779;57;1140762;-70
2023/07/19 21:31:01;;;;;;;10.78;5.45;;;;;;;20.33;72.15;100043.44;5046333;57;1140793;-66
2023/07/19 21:36:07;;;;;;;22.75;8.40;;;;;;;20.20;72.65;100042.49;5052579;57;1140831;-69
2023/07/19 21:41:12;;;;;;;7.08;3.75;;;;;;;20.18;73.55;100047.22;5072589;57;1141018;-66
2023/07/19 21:46:18;;;;;;;10.80;3.10;;;;;;;20.26;73.71;100051.13;5052418;57;1138614;-69
2023/07/19 21:51:24;;;;;;;3.77;2.80;;;;;;;20.22;73.51;100057.91;5053001;57;1141121;-65
2023/07/19 21:56:29;;;;;;;7.90;3.46;;;;;;;20.21;73.96;100061.09;5003356;57;1138734;-67
2023/07/19 22:01:35;;;;;;;8.60;2.65;;;;;;;20.27;74.77;100058.17;5011903;57;1138818;-69
2023/07/19 22:06:41;;;;;;;6.37;2.52;;;;;;;20.28;74.60;100051.27;5013325;57;1138802;-69
2023/07/19 22:11:48;;;;;;;7.05;4.47;;;;;;;20.33;74.59;100041.27;5011748;57;1138950;-67
2023/07/19 22:16:54;;;;;;;15.72;7.45;;;;;;;20.36;74.75;100035.03;5075074;57;1138562;-68
2023/07/19 22:22:01;;;;;;;15.15;7.45;;;;;;;20.29;74.08;100032.78;5043934;57;1140659;-70
2023/07/19 22:27:07;;;;;;;20.07;11.73;;;;;;;20.22;74.45;100032.39;5056971;57;1141092;-67
2023/07/19 22:32:12;;;;;;;23.83;12.27;;;;;;;20.03;74.26;100032.52;5076528;57;1143006;-69
2023/07/19 22:37:24;;;;;;;18.77;8.33;;;;;;;19.87;74.77;100032.26;5056953;57;1142996;-68
2023/07/19 22:42:25;;;;;;;11.55;5.65;;;;;;;19.80;75.44;100019.30;5055532;57;1140948;-69
2023/07/19 22:47:31;;;;;;;7.73;4.40;;;;;;;19.68;75.40;100029.39;5057297;57;1140966;-66
2023/07/19 22:52:38;;;;;;;7.05;3.55;;;;;;;19.49;75.76;100030.78;5077297;57;1138777;-72
2023/07/19 22:57:44;;;;;;;6.90;3.45;;;;;;;19.35;76.51;100029.80;5055263;57;1138881;-69
2023/07/19 23:02:49;;;;;;;7.17;3.42;;;;;;;19.37;77.35;100033.63;5039331;57;1138685;-67
2023/07/19 23:07:55;;;;;;;6.20;3.50;;;;;;;19.43;77.91;100031.02;5014066;57;1138682;-69